sensor_id;sensor_type;location;lat;lon;timestamp;temperature;humidity
41469;DHT22;27206;47.032;15.484;2023-08-08T00:02:16;11.40;99.90
41469;DHT22;27206;47.032;15.484;2023-08-08T00:04:41;11.40;99.90
41469;DHT22;27206;47.032;15.484;2023-08-08T00:07:07;11.60;99.90
41469;DHT22;27206;47.032;15.484;2023-08-08T00:09:33;11.60;99.90
41469;DHT22;27206;47.032;15.484;2023-08-08T00:11:59;11.60;99.90
41469;DHT22;27206;47.032;15.484;2023-08-08T00:14:24;11.60;99.90
41469;DHT22;27206;47.032;15.484;2023-08-08T00:16:50;11.70;99.90
41469;DHT22;27206;47.032;15.484;2023-08-08T00:19:16;11.80;99.90
41469;DHT22;27206;47.032;15.484;2023-08-08T00:21:41;11.60;99.90
41469;DHT22;27206;47.032;15.484;2023-08-08T00:24:07;11.60;99.90
41469;DHT22;27206;47.032;15.484;2023-08-08T00:26:33;11.70;99.90
41469;DHT22;27206;47.032;15.484;2023-08-08T00:28:58;11.60;99.90
41469;DHT22;27206;47.032;15.484;2023-08-08T00:31:24;11.70;99.90
41469;DHT22;27206;47.032;15.484;2023-08-08T00:33:49;11.70;99.90
41469;DHT22;27206;47.032;15.484;2023-08-08T00:36:15;11.70;99.90
41469;DHT22;27206;47.032;15.484;2023-08-08T00:38:41;11.70;99.90
41469;DHT22;27206;47.032;15.484;2023-08-08T00:41:06;11.60;99.90
41469;DHT22;27206;47.032;15.484;2023-08-08T00:43:32;11.60;99.90
41469;DHT22;27206;47.032;15.484;2023-08-08T00:45:58;11.70;99.90
41469;DHT22;27206;47.032;15.484;2023-08-08T00:48:24;11.60;99.90
41469;DHT22;27206;47.032;15.484;2023-08-08T00:50:50;11.60;99.90
41469;DHT22;27206;47.032;15.484;2023-08-08T00:53:18;11.50;99.90
41469;DHT22;27206;47.032;15.484;2023-08-08T00:55:45;11.40;99.90
41469;DHT22;27206;47.032;15.484;2023-08-08T00:58:12;11.40;99.90
41469;DHT22;27206;47.032;15.484;2023-08-08T01:00:37;11.30;99.90
41469;DHT22;27206;47.032;15.484;2023-08-08T01:03:03;11.30;99.90
41469;DHT22;27206;47.032;15.484;2023-08-08T01:05:35;11.30;99.90
41469;DHT22;27206;47.032;15.484;2023-08-08T01:08:05;11.20;99.90
41469;DHT22;27206;47.032;15.484;2023-08-08T01:10:38;11.20;99.90
41469;DHT22;27206;47.032;15.484;2023-08-08T01:13:20;11.30;99.90
41469;DHT22;27206;47.032;15.484;2023-08-08T01:15:48;11.20;99.90
41469;DHT22;27206;47.032;15.484;2023-08-08T01:18:15;11.00;99.90
41469;DHT22;27206;47.032;15.484;2023-08-08T01:20:43;11.00;99.90
41469;DHT22;27206;47.032;15.484;2023-08-08T01:23:26;10.90;99.90
41469;DHT22;27206;47.032;15.484;2023-08-08T01:25:54;10.80;99.90
41469;DHT22;27206;47.032;15.484;2023-08-08T01:28:23;10.90;99.90
41469;DHT22;27206;47.032;15.484;2023-08-08T01:30:50;10.90;99.90
41469;DHT22;27206;47.032;15.484;2023-08-08T01:33:15;10.90;99.90
41469;DHT22;27206;47.032;15.484;2023-08-08T01:35:45;10.80;99.90
41469;DHT22;27206;47.032;15.484;2023-08-08T01:40:43;10.70;99.90
41469;DHT22;27206;47.032;15.484;2023-08-08T01:43:09;10.80;99.90
41469;DHT22;27206;47.032;15.484;2023-08-08T01:45:36;10.70;99.90
41469;DHT22;27206;47.032;15.484;2023-08-08T01:48:10;10.70;99.90
41469;DHT22;27206;47.032;15.484;2023-08-08T01:50:36;10.60;99.90
41469;DHT22;27206;47.032;15.484;2023-08-08T01:53:02;10.70;99.90
41469;DHT22;27206;47.032;15.484;2023-08-08T01:55:27;10.70;99.90
41469;DHT22;27206;47.032;15.484;2023-08-08T01:57:53;10.60;99.90
41469;DHT22;27206;47.032;15.484;2023-08-08T02:00:18;10.60;99.90
41469;DHT22;27206;47.032;15.484;2023-08-08T02:02:44;10.50;99.90
41469;DHT22;27206;47.032;15.484;2023-08-08T02:05:10;10.50;99.90
41469;DHT22;27206;47.032;15.484;2023-08-08T02:07:35;10.60;99.90
41469;DHT22;27206;47.032;15.484;2023-08-08T02:10:01;10.60;99.90
41469;DHT22;27206;47.032;15.484;2023-08-08T02:12:27;10.60;99.90
41469;DHT22;27206;47.032;15.484;2023-08-08T02:14:54;10.50;99.90
41469;DHT22;27206;47.032;15.484;2023-08-08T02:17:21;10.50;99.90
41469;DHT22;27206;47.032;15.484;2023-08-08T02:19:47;10.50;99.90
41469;DHT22;27206;47.032;15.484;2023-08-08T02:22:16;10.50;99.90
41469;DHT22;27206;47.032;15.484;2023-08-08T02:24:47;10.50;99.90
41469;DHT22;27206;47.032;15.484;2023-08-08T02:27:13;10.50;99.90
41469;DHT22;27206;47.032;15.484;2023-08-08T02:29:39;10.50;99.90
41469;DHT22;27206;47.032;15.484;2023-08-08T02:32:05;10.40;99.90
41469;DHT22;27206;47.032;15.484;2023-08-08T02:34:31;10.40;99.90
41469;DHT22;27206;47.032;15.484;2023-08-08T02:36:56;10.30;99.90
41469;DHT22;27206;47.032;15.484;2023-08-08T02:39:22;10.30;99.90
41469;DHT22;27206;47.032;15.484;2023-08-08T02:41:48;10.30;99.90
41469;DHT22;27206;47.032;15.484;2023-08-08T02:44:13;10.10;99.90
41469;DHT22;27206;47.032;15.484;2023-08-08T02:46:39;10.00;99.90
41469;DHT22;27206;47.032;15.484;2023-08-08T02:49:05;9.90;99.90
41469;DHT22;27206;47.032;15.484;2023-08-08T02:51:30;9.90;99.90
41469;DHT22;27206;47.032;15.484;2023-08-08T02:53:56;9.90;99.90
41469;DHT22;27206;47.032;15.484;2023-08-08T02:56:22;9.90;99.90
41469;DHT22;27206;47.032;15.484;2023-08-08T02:58:47;10.00;99.90
41469;DHT22;27206;47.032;15.484;2023-08-08T03:01:13;9.90;99.90
41469;DHT22;27206;47.032;15.484;2023-08-08T03:03:40;9.90;99.90
41469;DHT22;27206;47.032;15.484;2023-08-08T03:06:06;9.70;99.90
41469;DHT22;27206;47.032;15.484;2023-08-08T03:08:32;9.60;99.90
41469;DHT22;27206;47.032;15.484;2023-08-08T03:10:57;9.70;99.90
41469;DHT22;27206;47.032;15.484;2023-08-08T03:13:23;9.70;99.90
41469;DHT22;27206;47.032;15.484;2023-08-08T03:15:49;9.80;99.90
41469;DHT22;27206;47.032;15.484;2023-08-08T03:18:14;10.10;99.90
41469;DHT22;27206;47.032;15.484;2023-08-08T03:20:40;10.20;99.90
41469;DHT22;27206;47.032;15.484;2023-08-08T03:23:06;10.40;99.90
41469;DHT22;27206;47.032;15.484;2023-08-08T03:25:31;10.40;99.90
41469;DHT22;27206;47.032;15.484;2023-08-08T03:27:57;10.50;99.90
41469;DHT22;27206;47.032;15.484;2023-08-08T03:30:22;10.70;99.90
41469;DHT22;27206;47.032;15.484;2023-08-08T03:32:48;10.80;99.90
41469;DHT22;27206;47.032;15.484;2023-08-08T03:35:14;10.90;99.90
41469;DHT22;27206;47.032;15.484;2023-08-08T03:37:40;10.70;99.90
41469;DHT22;27206;47.032;15.484;2023-08-08T03:40:07;10.50;99.90
41469;DHT22;27206;47.032;15.484;2023-08-08T03:42:35;10.40;99.90
41469;DHT22;27206;47.032;15.484;2023-08-08T03:45:02;10.40;99.90
41469;DHT22;27206;47.032;15.484;2023-08-08T03:47:27;10.30;99.90
41469;DHT22;27206;47.032;15.484;2023-08-08T03:49:55;10.20;99.90
41469;DHT22;27206;47.032;15.484;2023-08-08T03:52:23;10.20;99.90
41469;DHT22;27206;47.032;15.484;2023-08-08T03:54:48;10.00;99.90
41469;DHT22;27206;47.032;15.484;2023-08-08T03:57:14;10.10;99.90
41469;DHT22;27206;47.032;15.484;2023-08-08T03:59:40;10.10;99.90
41469;DHT22;27206;47.032;15.484;2023-08-08T04:02:05;10.00;99.90
41469;DHT22;27206;47.032;15.484;2023-08-08T04:04:31;9.90;99.90
41469;DHT22;27206;47.032;15.484;2023-08-08T04:06:57;9.90;99.90
41469;DHT22;27206;47.032;15.484;2023-08-08T04:09:22;9.90;99.90
41469;DHT22;27206;47.032;15.484;2023-08-08T04:11:48;9.90;99.90
41469;DHT22;27206;47.032;15.484;2023-08-08T04:14:14;9.90;99.90
41469;DHT22;27206;47.032;15.484;2023-08-08T04:16:39;9.80;99.90
41469;DHT22;27206;47.032;15.484;2023-08-08T04:19:05;9.90;99.90
41469;DHT22;27206;47.032;15.484;2023-08-08T04:21:31;10.00;99.90
41469;DHT22;27206;47.032;15.484;2023-08-08T04:23:58;10.00;99.90
41469;DHT22;27206;47.032;15.484;2023-08-08T04:26:25;10.00;99.90
41469;DHT22;27206;47.032;15.484;2023-08-08T04:28:51;10.00;99.90
41469;DHT22;27206;47.032;15.484;2023-08-08T04:31:16;9.90;99.90
41469;DHT22;27206;47.032;15.484;2023-08-08T04:33:42;10.00;99.90
41469;DHT22;27206;47.032;15.484;2023-08-08T04:36:07;10.00;99.90
41469;DHT22;27206;47.032;15.484;2023-08-08T04:38:33;10.10;99.90
41469;DHT22;27206;47.032;15.484;2023-08-08T04:40:59;10.20;99.90
41469;DHT22;27206;47.032;15.484;2023-08-08T04:43:25;10.30;99.90
41469;DHT22;27206;47.032;15.484;2023-08-08T04:45:53;10.30;99.90
41469;DHT22;27206;47.032;15.484;2023-08-08T04:48:19;10.40;99.90
41469;DHT22;27206;47.032;15.484;2023-08-08T04:50:46;10.40;99.90
41469;DHT22;27206;47.032;15.484;2023-08-08T04:53:12;10.40;99.90
41469;DHT22;27206;47.032;15.484;2023-08-08T04:55:38;10.40;99.90
41469;DHT22;27206;47.032;15.484;2023-08-08T04:58:05;10.50;99.90
41469;DHT22;27206;47.032;15.484;2023-08-08T05:00:30;10.50;99.90
41469;DHT22;27206;47.032;15.484;2023-08-08T05:02:56;10.50;99.90
41469;DHT22;27206;47.032;15.484;2023-08-08T05:05:21;10.60;99.90
41469;DHT22;27206;47.032;15.484;2023-08-08T05:07:47;10.60;99.90
41469;DHT22;27206;47.032;15.484;2023-08-08T05:10:16;10.80;99.90
41469;DHT22;27206;47.032;15.484;2023-08-08T05:12:41;10.80;99.90
41469;DHT22;27206;47.032;15.484;2023-08-08T05:15:07;10.80;99.90
41469;DHT22;27206;47.032;15.484;2023-08-08T05:17:33;10.80;99.90
41469;DHT22;27206;47.032;15.484;2023-08-08T05:19:59;10.90;99.90
41469;DHT22;27206;47.032;15.484;2023-08-08T05:22:24;10.90;99.90
41469;DHT22;27206;47.032;15.484;2023-08-08T05:24:50;11.00;99.90
41469;DHT22;27206;47.032;15.484;2023-08-08T05:27:16;11.10;99.90
41469;DHT22;27206;47.032;15.484;2023-08-08T05:29:41;11.10;99.90
41469;DHT22;27206;47.032;15.484;2023-08-08T05:32:07;11.10;99.90
41469;DHT22;27206;47.032;15.484;2023-08-08T05:34:34;11.10;99.90
41469;DHT22;27206;47.032;15.484;2023-08-08T05:37:00;11.30;99.90
41469;DHT22;27206;47.032;15.484;2023-08-08T05:39:25;11.40;99.90
41469;DHT22;27206;47.032;15.484;2023-08-08T05:41:52;11.50;99.90
41469;DHT22;27206;47.032;15.484;2023-08-08T05:44:17;11.50;99.90
41469;DHT22;27206;47.032;15.484;2023-08-08T05:46:43;11.70;99.90
41469;DHT22;27206;47.032;15.484;2023-08-08T05:49:09;11.80;99.90
41469;DHT22;27206;47.032;15.484;2023-08-08T05:51:34;11.90;99.90
41469;DHT22;27206;47.032;15.484;2023-08-08T05:54:00;12.20;99.90
41469;DHT22;27206;47.032;15.484;2023-08-08T05:56:34;12.30;99.90
41469;DHT22;27206;47.032;15.484;2023-08-08T05:59:00;12.40;99.90
41469;DHT22;27206;47.032;15.484;2023-08-08T06:01:25;12.40;99.90
41469;DHT22;27206;47.032;15.484;2023-08-08T06:03:51;12.60;99.90
41469;DHT22;27206;47.032;15.484;2023-08-08T06:06:18;12.70;99.90
41469;DHT22;27206;47.032;15.484;2023-08-08T06:08:44;12.80;99.90
41469;DHT22;27206;47.032;15.484;2023-08-08T06:11:09;12.90;99.90
41469;DHT22;27206;47.032;15.484;2023-08-08T06:13:36;13.00;99.90
41469;DHT22;27206;47.032;15.484;2023-08-08T06:16:02;13.10;99.90
41469;DHT22;27206;47.032;15.484;2023-08-08T06:18:32;13.20;99.90
41469;DHT22;27206;47.032;15.484;2023-08-08T06:20:58;13.30;99.90
41469;DHT22;27206;47.032;15.484;2023-08-08T06:23:23;13.50;99.90
41469;DHT22;27206;47.032;15.484;2023-08-08T06:25:49;13.50;99.90
41469;DHT22;27206;47.032;15.484;2023-08-08T06:28:15;13.60;99.90
41469;DHT22;27206;47.032;15.484;2023-08-08T06:30:40;13.70;99.90
41469;DHT22;27206;47.032;15.484;2023-08-08T06:33:06;13.90;99.50
41469;DHT22;27206;47.032;15.484;2023-08-08T06:35:32;14.00;97.80
41469;DHT22;27206;47.032;15.484;2023-08-08T06:37:57;14.10;97.70
41469;DHT22;27206;47.032;15.484;2023-08-08T06:40:23;14.10;98.80
41469;DHT22;27206;47.032;15.484;2023-08-08T06:42:49;14.20;99.90
41469;DHT22;27206;47.032;15.484;2023-08-08T06:45:15;14.30;99.90
41469;DHT22;27206;47.032;15.484;2023-08-08T06:47:40;14.30;99.90
41469;DHT22;27206;47.032;15.484;2023-08-08T06:50:07;14.30;97.80
41469;DHT22;27206;47.032;15.484;2023-08-08T06:52:32;14.30;96.10
41469;DHT22;27206;47.032;15.484;2023-08-08T06:54:58;14.30;95.40
41469;DHT22;27206;47.032;15.484;2023-08-08T06:57:24;14.40;96.80
41469;DHT22;27206;47.032;15.484;2023-08-08T06:59:49;14.40;99.90
41469;DHT22;27206;47.032;15.484;2023-08-08T07:02:19;14.50;98.80
41469;DHT22;27206;47.032;15.484;2023-08-08T07:04:44;14.60;95.40
41469;DHT22;27206;47.032;15.484;2023-08-08T07:07:10;14.70;91.30
41469;DHT22;27206;47.032;15.484;2023-08-08T07:09:36;14.70;90.30
41469;DHT22;27206;47.032;15.484;2023-08-08T07:12:03;14.90;90.80
41469;DHT22;27206;47.032;15.484;2023-08-08T07:14:29;15.00;88.60
41469;DHT22;27206;47.032;15.484;2023-08-08T07:16:55;15.10;83.20
41469;DHT22;27206;47.032;15.484;2023-08-08T07:19:21;15.20;85.50
41469;DHT22;27206;47.032;15.484;2023-08-08T07:21:47;15.30;68.50
41469;DHT22;27206;47.032;15.484;2023-08-08T07:24:12;15.30;59.70
41469;DHT22;27206;47.032;15.484;2023-08-08T07:26:38;15.40;51.20
41469;DHT22;27206;47.032;15.484;2023-08-08T07:29:04;15.50;47.00
41469;DHT22;27206;47.032;15.484;2023-08-08T07:31:31;15.50;71.00
41469;DHT22;27206;47.032;15.484;2023-08-08T07:33:57;15.70;73.60
41469;DHT22;27206;47.032;15.484;2023-08-08T07:36:23;15.80;70.80
41469;DHT22;27206;47.032;15.484;2023-08-08T07:38:49;15.90;59.90
41469;DHT22;27206;47.032;15.484;2023-08-08T07:41:15;16.00;41.90
41469;DHT22;27206;47.032;15.484;2023-08-08T07:43:40;16.10;39.90
41469;DHT22;27206;47.032;15.484;2023-08-08T07:46:06;16.20;30.70
41469;DHT22;27206;47.032;15.484;2023-08-08T07:48:32;16.20;29.20
41469;DHT22;27206;47.032;15.484;2023-08-08T07:50:57;16.20;30.60
41469;DHT22;27206;47.032;15.484;2023-08-08T07:53:23;16.30;45.10
41469;DHT22;27206;47.032;15.484;2023-08-08T07:55:48;16.30;45.80
41469;DHT22;27206;47.032;15.484;2023-08-08T07:58:14;16.40;44.60
41469;DHT22;27206;47.032;15.484;2023-08-08T08:00:40;16.50;38.60
41469;DHT22;27206;47.032;15.484;2023-08-08T08:03:06;16.60;17.90
41469;DHT22;27206;47.032;15.484;2023-08-08T08:05:32;16.70;1.70
41469;DHT22;27206;47.032;15.484;2023-08-08T08:08:00;16.80;1.00
41469;DHT22;27206;47.032;15.484;2023-08-08T08:10:26;16.90;1.00
41469;DHT22;27206;47.032;15.484;2023-08-08T08:12:51;16.90;1.00
41469;DHT22;27206;47.032;15.484;2023-08-08T08:15:23;17.00;1.00
41469;DHT22;27206;47.032;15.484;2023-08-08T08:17:49;17.10;1.30
41469;DHT22;27206;47.032;15.484;2023-08-08T08:20:15;17.30;15.40
41469;DHT22;27206;47.032;15.484;2023-08-08T08:22:40;17.30;11.40
41469;DHT22;27206;47.032;15.484;2023-08-08T08:25:06;17.40;1.00
41469;DHT22;27206;47.032;15.484;2023-08-08T08:27:35;17.40;1.00
41469;DHT22;27206;47.032;15.484;2023-08-08T08:30:01;17.60;1.00
41469;DHT22;27206;47.032;15.484;2023-08-08T08:32:33;17.80;1.00
41469;DHT22;27206;47.032;15.484;2023-08-08T08:35:00;18.00;1.00
41469;DHT22;27206;47.032;15.484;2023-08-08T08:37:26;18.20;1.00
41469;DHT22;27206;47.032;15.484;2023-08-08T08:39:51;18.20;1.00
41469;DHT22;27206;47.032;15.484;2023-08-08T08:42:17;18.30;1.00
41469;DHT22;27206;47.032;15.484;2023-08-08T08:44:43;18.40;1.00
41469;DHT22;27206;47.032;15.484;2023-08-08T08:47:12;18.60;1.00
41469;DHT22;27206;47.032;15.484;2023-08-08T08:49:38;18.70;1.00
41469;DHT22;27206;47.032;15.484;2023-08-08T08:52:05;19.00;1.00
41469;DHT22;27206;47.032;15.484;2023-08-08T08:54:32;19.20;1.00
41469;DHT22;27206;47.032;15.484;2023-08-08T08:56:58;19.20;1.00
41469;DHT22;27206;47.032;15.484;2023-08-08T08:59:24;19.30;1.00
41469;DHT22;27206;47.032;15.484;2023-08-08T09:01:51;19.30;1.00
41469;DHT22;27206;47.032;15.484;2023-08-08T09:04:19;19.40;1.00
41469;DHT22;27206;47.032;15.484;2023-08-08T09:06:46;19.50;1.00
41469;DHT22;27206;47.032;15.484;2023-08-08T09:09:12;19.60;1.00
41469;DHT22;27206;47.032;15.484;2023-08-08T09:11:49;19.70;1.00
41469;DHT22;27206;47.032;15.484;2023-08-08T09:14:20;19.80;1.00
41469;DHT22;27206;47.032;15.484;2023-08-08T09:16:46;19.80;1.00
41469;DHT22;27206;47.032;15.484;2023-08-08T09:19:14;19.90;1.00
41469;DHT22;27206;47.032;15.484;2023-08-08T09:21:40;20.00;1.00
41469;DHT22;27206;47.032;15.484;2023-08-08T09:24:05;20.00;1.00
41469;DHT22;27206;47.032;15.484;2023-08-08T09:26:33;20.10;1.00
41469;DHT22;27206;47.032;15.484;2023-08-08T09:29:00;20.40;1.00
41469;DHT22;27206;47.032;15.484;2023-08-08T09:31:26;20.30;1.00
41469;DHT22;27206;47.032;15.484;2023-08-08T09:33:54;20.50;1.00
41469;DHT22;27206;47.032;15.484;2023-08-08T09:36:19;20.90;1.00
41469;DHT22;27206;47.032;15.484;2023-08-08T09:38:45;20.90;1.00
41469;DHT22;27206;47.032;15.484;2023-08-08T09:41:12;21.00;1.00
41469;DHT22;27206;47.032;15.484;2023-08-08T09:43:37;21.30;1.00
41469;DHT22;27206;47.032;15.484;2023-08-08T09:46:03;21.50;1.00
41469;DHT22;27206;47.032;15.484;2023-08-08T09:48:30;21.50;1.00
41469;DHT22;27206;47.032;15.484;2023-08-08T09:50:58;21.60;1.00
41469;DHT22;27206;47.032;15.484;2023-08-08T09:53:30;21.80;1.00
41469;DHT22;27206;47.032;15.484;2023-08-08T09:55:56;21.60;1.00
41469;DHT22;27206;47.032;15.484;2023-08-08T09:58:22;21.70;1.00
41469;DHT22;27206;47.032;15.484;2023-08-08T10:00:51;22.00;1.00
41469;DHT22;27206;47.032;15.484;2023-08-08T10:03:17;22.10;1.00
41469;DHT22;27206;47.032;15.484;2023-08-08T10:05:44;22.20;1.00
41469;DHT22;27206;47.032;15.484;2023-08-08T10:08:10;22.50;1.00
41469;DHT22;27206;47.032;15.484;2023-08-08T10:10:37;22.70;1.00
41469;DHT22;27206;47.032;15.484;2023-08-08T10:13:03;22.90;1.00
41469;DHT22;27206;47.032;15.484;2023-08-08T10:15:29;23.30;1.00
41469;DHT22;27206;47.032;15.484;2023-08-08T10:17:57;23.00;1.00
41469;DHT22;27206;47.032;15.484;2023-08-08T10:20:26;23.00;1.00
41469;DHT22;27206;47.032;15.484;2023-08-08T10:22:53;22.80;1.00
41469;DHT22;27206;47.032;15.484;2023-08-08T10:25:27;23.10;1.00
41469;DHT22;27206;47.032;15.484;2023-08-08T10:28:04;23.20;1.00
41469;DHT22;27206;47.032;15.484;2023-08-08T10:30:41;23.20;1.00
41469;DHT22;27206;47.032;15.484;2023-08-08T10:33:17;23.30;1.00
41469;DHT22;27206;47.032;15.484;2023-08-08T10:35:57;23.30;1.00
41469;DHT22;27206;47.032;15.484;2023-08-08T10:38:24;23.20;99.90
41469;DHT22;27206;47.032;15.484;2023-08-08T10:41:02;23.60;1.00
41469;DHT22;27206;47.032;15.484;2023-08-08T10:43:31;23.70;1.00
41469;DHT22;27206;47.032;15.484;2023-08-08T10:46:03;23.70;1.00
41469;DHT22;27206;47.032;15.484;2023-08-08T10:48:30;23.50;99.90
41469;DHT22;27206;47.032;15.484;2023-08-08T10:50:58;23.40;99.90
41469;DHT22;27206;47.032;15.484;2023-08-08T10:53:28;23.60;99.90
41469;DHT22;27206;47.032;15.484;2023-08-08T10:56:01;24.00;1.00
41469;DHT22;27206;47.032;15.484;2023-08-08T10:58:41;23.90;99.90
41469;DHT22;27206;47.032;15.484;2023-08-08T11:01:07;24.00;99.90
41469;DHT22;27206;47.032;15.484;2023-08-08T11:03:36;24.00;99.90
41469;DHT22;27206;47.032;15.484;2023-08-08T11:06:03;24.00;99.90
41469;DHT22;27206;47.032;15.484;2023-08-08T11:08:32;24.10;99.90
41469;DHT22;27206;47.032;15.484;2023-08-08T11:10:58;24.50;1.00
41469;DHT22;27206;47.032;15.484;2023-08-08T11:13:24;24.50;1.00
41469;DHT22;27206;47.032;15.484;2023-08-08T11:15:50;24.50;1.00
41469;DHT22;27206;47.032;15.484;2023-08-08T11:18:16;24.60;1.00
41469;DHT22;27206;47.032;15.484;2023-08-08T11:20:43;25.00;1.00
41469;DHT22;27206;47.032;15.484;2023-08-08T11:23:10;25.00;1.00
41469;DHT22;27206;47.032;15.484;2023-08-08T11:25:36;25.20;1.00
41469;DHT22;27206;47.032;15.484;2023-08-08T11:28:04;25.20;1.00
41469;DHT22;27206;47.032;15.484;2023-08-08T11:30:33;25.70;1.00
41469;DHT22;27206;47.032;15.484;2023-08-08T11:32:59;25.30;1.00
41469;DHT22;27206;47.032;15.484;2023-08-08T11:35:26;24.70;1.00
41469;DHT22;27206;47.032;15.484;2023-08-08T11:37:54;24.30;1.00
41469;DHT22;27206;47.032;15.484;2023-08-08T11:40:22;25.00;1.00
41469;DHT22;27206;47.032;15.484;2023-08-08T11:42:49;25.30;1.00
41469;DHT22;27206;47.032;15.484;2023-08-08T11:45:15;25.70;1.00
41469;DHT22;27206;47.032;15.484;2023-08-08T11:47:41;26.20;1.00
41469;DHT22;27206;47.032;15.484;2023-08-08T11:50:10;26.10;99.90
41469;DHT22;27206;47.032;15.484;2023-08-08T11:52:40;26.40;99.90
41469;DHT22;27206;47.032;15.484;2023-08-08T11:55:10;26.90;99.90
41469;DHT22;27206;47.032;15.484;2023-08-08T11:57:39;26.90;99.90
41469;DHT22;27206;47.032;15.484;2023-08-08T12:00:07;26.80;99.90
41469;DHT22;27206;47.032;15.484;2023-08-08T12:02:37;27.20;99.90
41469;DHT22;27206;47.032;15.484;2023-08-08T12:05:06;27.60;99.90
41469;DHT22;27206;47.032;15.484;2023-08-08T12:07:36;27.20;99.90
41469;DHT22;27206;47.032;15.484;2023-08-08T12:10:04;26.60;99.90
41469;DHT22;27206;47.032;15.484;2023-08-08T12:12:31;27.00;99.90
41469;DHT22;27206;47.032;15.484;2023-08-08T12:15:06;27.00;99.90
41469;DHT22;27206;47.032;15.484;2023-08-08T12:17:32;27.30;99.90
41469;DHT22;27206;47.032;15.484;2023-08-08T12:20:00;27.00;99.90
41469;DHT22;27206;47.032;15.484;2023-08-08T12:22:26;26.60;99.90
41469;DHT22;27206;47.032;15.484;2023-08-08T12:24:52;27.10;99.90
41469;DHT22;27206;47.032;15.484;2023-08-08T12:27:17;27.30;99.90
41469;DHT22;27206;47.032;15.484;2023-08-08T12:29:43;27.40;99.90
41469;DHT22;27206;47.032;15.484;2023-08-08T12:32:10;28.00;99.90
41469;DHT22;27206;47.032;15.484;2023-08-08T12:34:35;28.40;99.90
41469;DHT22;27206;47.032;15.484;2023-08-08T12:37:01;28.00;99.90
41469;DHT22;27206;47.032;15.484;2023-08-08T12:39:28;28.20;99.90
41469;DHT22;27206;47.032;15.484;2023-08-08T12:41:54;28.40;99.90
41469;DHT22;27206;47.032;15.484;2023-08-08T12:44:19;28.50;99.90
41469;DHT22;27206;47.032;15.484;2023-08-08T12:46:45;28.20;99.90
41469;DHT22;27206;47.032;15.484;2023-08-08T12:49:11;28.00;99.90
41469;DHT22;27206;47.032;15.484;2023-08-08T12:51:37;27.60;99.90
41469;DHT22;27206;47.032;15.484;2023-08-08T12:54:03;27.10;99.90
41469;DHT22;27206;47.032;15.484;2023-08-08T12:56:29;26.70;99.90
41469;DHT22;27206;47.032;15.484;2023-08-08T12:58:54;27.50;99.90
41469;DHT22;27206;47.032;15.484;2023-08-08T13:01:20;28.20;99.90
41469;DHT22;27206;47.032;15.484;2023-08-08T13:03:45;28.30;99.90
41469;DHT22;27206;47.032;15.484;2023-08-08T13:06:12;28.80;99.90
41469;DHT22;27206;47.032;15.484;2023-08-08T13:08:39;28.30;99.90
41469;DHT22;27206;47.032;15.484;2023-08-08T13:11:04;28.40;99.90
41469;DHT22;27206;47.032;15.484;2023-08-08T13:13:30;27.90;99.90
41469;DHT22;27206;47.032;15.484;2023-08-08T13:15:56;28.80;99.90
41469;DHT22;27206;47.032;15.484;2023-08-08T13:18:22;28.10;99.90
41469;DHT22;27206;47.032;15.484;2023-08-08T13:20:48;28.10;99.90
41469;DHT22;27206;47.032;15.484;2023-08-08T13:23:14;28.50;99.90
41469;DHT22;27206;47.032;15.484;2023-08-08T13:25:39;29.30;99.90
41469;DHT22;27206;47.032;15.484;2023-08-08T13:28:06;29.10;99.90
41469;DHT22;27206;47.032;15.484;2023-08-08T13:30:32;29.60;99.90
41469;DHT22;27206;47.032;15.484;2023-08-08T13:32:58;29.70;99.90
41469;DHT22;27206;47.032;15.484;2023-08-08T13:35:24;29.80;99.90
41469;DHT22;27206;47.032;15.484;2023-08-08T13:37:49;29.60;99.90
41469;DHT22;27206;47.032;15.484;2023-08-08T13:40:17;29.60;99.90
41469;DHT22;27206;47.032;15.484;2023-08-08T13:42:43;29.80;99.90
41469;DHT22;27206;47.032;15.484;2023-08-08T13:45:22;30.00;99.90
41469;DHT22;27206;47.032;15.484;2023-08-08T13:47:49;29.40;99.90
41469;DHT22;27206;47.032;15.484;2023-08-08T13:50:14;29.80;99.90
41469;DHT22;27206;47.032;15.484;2023-08-08T13:52:40;29.70;99.90
41469;DHT22;27206;47.032;15.484;2023-08-08T13:55:07;30.00;99.90
41469;DHT22;27206;47.032;15.484;2023-08-08T13:57:34;29.30;99.90
41469;DHT22;27206;47.032;15.484;2023-08-08T14:00:00;29.50;99.90
41469;DHT22;27206;47.032;15.484;2023-08-08T14:02:25;29.30;99.90
41469;DHT22;27206;47.032;15.484;2023-08-08T14:04:51;29.20;99.90
41469;DHT22;27206;47.032;15.484;2023-08-08T14:07:18;28.90;99.90
41469;DHT22;27206;47.032;15.484;2023-08-08T14:09:43;29.10;99.90
41469;DHT22;27206;47.032;15.484;2023-08-08T14:12:09;29.00;99.90
41469;DHT22;27206;47.032;15.484;2023-08-08T14:14:34;28.90;99.90
41469;DHT22;27206;47.032;15.484;2023-08-08T14:17:00;28.30;99.90
41469;DHT22;27206;47.032;15.484;2023-08-08T14:19:26;27.90;99.90
41469;DHT22;27206;47.032;15.484;2023-08-08T14:21:51;27.60;99.90
41469;DHT22;27206;47.032;15.484;2023-08-08T14:24:17;27.50;99.90
41469;DHT22;27206;47.032;15.484;2023-08-08T14:26:42;27.50;99.90
41469;DHT22;27206;47.032;15.484;2023-08-08T14:29:08;27.30;99.90
41469;DHT22;27206;47.032;15.484;2023-08-08T14:31:34;27.50;1.00
41469;DHT22;27206;47.032;15.484;2023-08-08T14:33:59;27.20;1.00
41469;DHT22;27206;47.032;15.484;2023-08-08T14:36:25;27.10;1.00
41469;DHT22;27206;47.032;15.484;2023-08-08T14:38:50;27.30;1.00
41469;DHT22;27206;47.032;15.484;2023-08-08T14:41:16;27.50;1.00
41469;DHT22;27206;47.032;15.484;2023-08-08T14:43:42;27.40;1.00
41469;DHT22;27206;47.032;15.484;2023-08-08T14:46:07;27.40;1.00
41469;DHT22;27206;47.032;15.484;2023-08-08T14:48:33;27.00;1.00
41469;DHT22;27206;47.032;15.484;2023-08-08T14:51:01;26.30;1.00
41469;DHT22;27206;47.032;15.484;2023-08-08T14:53:27;26.30;1.00
41469;DHT22;27206;47.032;15.484;2023-08-08T14:55:53;26.40;1.00
41469;DHT22;27206;47.032;15.484;2023-08-08T14:58:18;26.70;1.00
41469;DHT22;27206;47.032;15.484;2023-08-08T15:00:44;27.00;1.00
41469;DHT22;27206;47.032;15.484;2023-08-08T15:03:09;26.70;1.00
41469;DHT22;27206;47.032;15.484;2023-08-08T15:05:35;26.50;1.00
41469;DHT22;27206;47.032;15.484;2023-08-08T15:08:01;26.80;1.00
41469;DHT22;27206;47.032;15.484;2023-08-08T15:10:27;26.70;1.00
41469;DHT22;27206;47.032;15.484;2023-08-08T15:12:53;26.00;1.00
41469;DHT22;27206;47.032;15.484;2023-08-08T15:15:18;25.80;1.00
41469;DHT22;27206;47.032;15.484;2023-08-08T15:17:48;25.50;1.00
41469;DHT22;27206;47.032;15.484;2023-08-08T15:20:14;25.20;1.00